createdAt,value
2023-01-28T00:00:23.695Z,5.6
2023-01-28T00:01:23.697Z,5.6
2023-01-28T00:02:23.728Z,5.6
2023-01-28T00:03:23.773Z,5.4
2023-01-28T00:04:23.695Z,5.5
2023-01-28T00:05:23.692Z,5.5
2023-01-28T00:06:23.694Z,5.3
2023-01-28T00:07:23.704Z,5.4
2023-01-28T00:08:23.709Z,5.6
2023-01-28T00:09:23.702Z,5.7
2023-01-28T00:10:23.721Z,5.9
2023-01-28T00:11:23.695Z,6
2023-01-28T00:12:23.689Z,5.5
2023-01-28T00:13:23.694Z,5.5
2023-01-28T00:14:23.703Z,5.6
2023-01-28T00:15:23.695Z,5.5
2023-01-28T00:16:23.766Z,5.5
2023-01-28T00:17:23.689Z,5.2
2023-01-28T00:18:23.705Z,5.2
2023-01-28T00:19:23.690Z,5
2023-01-28T00:20:23.691Z,5.1
2023-01-28T00:21:23.694Z,5
2023-01-28T00:22:23.710Z,5.1
2023-01-28T00:23:23.688Z,5
2023-01-28T00:24:23.780Z,5.2
2023-01-28T00:25:23.716Z,5.3
2023-01-28T00:26:23.702Z,5.3
2023-01-28T00:27:23.691Z,5.5
2023-01-28T00:28:23.719Z,5.4
2023-01-28T00:29:23.697Z,5.3
2023-01-28T00:30:23.699Z,5.4
2023-01-28T00:31:23.730Z,5.3
2023-01-28T00:32:23.701Z,5.2
2023-01-28T00:33:23.703Z,5.3
2023-01-28T00:34:23.703Z,5.1
2023-01-28T00:35:23.698Z,4.9
2023-01-28T00:36:23.724Z,5.1
2023-01-28T00:37:23.718Z,5.1
2023-01-28T00:38:23.701Z,5
2023-01-28T00:39:23.689Z,5.2
2023-01-28T00:40:23.692Z,5.3
2023-01-28T00:41:23.752Z,5.1
2023-01-28T00:42:23.689Z,5.1
2023-01-28T00:43:23.719Z,5.3
2023-01-28T00:44:23.702Z,5
2023-01-28T00:45:23.690Z,4.9
2023-01-28T00:46:23.763Z,4.6
2023-01-28T00:47:23.686Z,4.6
2023-01-28T00:48:23.689Z,4.7
2023-01-28T00:49:23.699Z,4.9
2023-01-28T00:50:23.717Z,5
2023-01-28T00:51:23.703Z,5.2
2023-01-28T00:52:23.682Z,5.2
2023-01-28T00:53:23.689Z,5.2
2023-01-28T00:54:23.691Z,5.2
2023-01-28T00:55:23.707Z,5.1
2023-01-28T00:56:23.686Z,5.2
2023-01-28T00:57:23.684Z,5.3
2023-01-28T00:58:23.692Z,5.3
2023-01-28T00:59:23.689Z,5.3
2023-01-28T01:00:23.691Z,5.4
2023-01-28T01:01:23.754Z,5.5
2023-01-28T01:02:23.737Z,5.5
2023-01-28T01:03:23.688Z,5.6
2023-01-28T01:04:23.689Z,5.6
2023-01-28T01:05:23.700Z,5.8
2023-01-28T01:06:23.682Z,5.9
2023-01-28T01:08:23.694Z,5.6
2023-01-28T01:09:23.692Z,5.7
2023-01-28T01:10:23.683Z,5.8
2023-01-28T01:11:23.691Z,5.9
2023-01-28T01:12:23.724Z,5.9
2023-01-28T01:14:23.686Z,6
2023-01-28T01:15:23.693Z,6.1
2023-01-28T01:16:23.712Z,6.2
2023-01-28T01:18:23.688Z,6.2
2023-01-28T01:19:23.683Z,6.2
2023-01-28T01:20:23.685Z,6.2
2023-01-28T01:21:23.683Z,6.1
2023-01-28T01:22:23.695Z,5.9
2023-01-28T01:23:23.692Z,5.8
2023-01-28T01:24:23.763Z,5.7
2023-01-28T01:25:23.680Z,5.7
2023-01-28T01:26:23.685Z,5.9
2023-01-28T01:27:23.690Z,5.7
2023-01-28T01:28:23.687Z,5.9
2023-01-28T01:29:23.681Z,5.8
2023-01-28T01:30:23.681Z,5.8
2023-01-28T01:31:23.782Z,5.8
2023-01-28T01:32:23.695Z,5.8
2023-01-28T01:33:23.695Z,5.6
2023-01-28T01:34:23.705Z,5.6
2023-01-28T01:35:23.705Z,5.6
2023-01-28T01:36:23.835Z,5.7
2023-01-28T01:37:23.690Z,5.8
2023-01-28T01:38:23.713Z,5.9
2023-01-28T01:39:23.683Z,5.8
2023-01-28T01:40:23.695Z,5.9
2023-01-28T01:41:23.700Z,6
2023-01-28T01:42:23.693Z,5.9
2023-01-28T01:43:23.708Z,6.1
2023-01-28T01:44:23.701Z,6.2
2023-01-28T01:45:23.690Z,6.2
2023-01-28T01:46:23.779Z,6.3
2023-01-28T01:47:23.687Z,6.3
2023-01-28T01:48:23.684Z,6.3
2023-01-28T01:49:23.707Z,6.3
2023-01-28T01:50:23.687Z,6.4
2023-01-28T01:51:23.684Z,6.4
2023-01-28T01:52:23.681Z,6.4
2023-01-28T01:53:23.683Z,6.3
2023-01-28T01:54:23.683Z,6.2
2023-01-28T01:55:23.703Z,6.3
2023-01-28T01:56:23.692Z,6.4
2023-01-28T01:57:23.682Z,6.5
2023-01-28T01:58:23.694Z,6.5
2023-01-28T01:59:23.676Z,6.6
2023-01-28T02:01:23.680Z,6.6
2023-01-28T02:02:23.717Z,6.6
2023-01-28T02:03:23.708Z,6.7
2023-01-28T02:04:23.695Z,6.5
2023-01-28T02:05:23.672Z,6.4
2023-01-28T02:06:23.698Z,6.6
2023-01-28T02:07:23.734Z,6.6
2023-01-28T02:08:23.711Z,6.6
2023-01-28T02:09:23.693Z,6.7
2023-01-28T02:10:23.687Z,6.7
2023-01-28T02:11:23.674Z,6.7
2023-01-28T02:12:23.691Z,6.8
2023-01-28T02:13:23.680Z,6.8
2023-01-28T02:14:31.042Z,6.8
2023-01-28T02:15:23.993Z,6.7
2023-01-28T02:16:23.707Z,6.8
2023-01-28T02:17:23.679Z,6.9
2023-01-28T02:18:23.683Z,6.8
2023-01-28T02:19:23.680Z,6.6
2023-01-28T02:20:23.691Z,6.5
2023-01-28T02:21:23.676Z,6.5
2023-01-28T02:22:23.675Z,6.6
2023-01-28T02:23:23.686Z,6.7
2023-01-28T02:24:23.754Z,6.8
2023-01-28T02:25:23.675Z,6.9
2023-01-28T02:26:23.681Z,6.9
2023-01-28T02:27:23.686Z,6.8
2023-01-28T02:28:23.674Z,6.8
2023-01-28T02:29:23.682Z,6.8
2023-01-28T02:30:23.715Z,6.8
2023-01-28T02:31:23.892Z,6.9
2023-01-28T02:32:23.685Z,6.9
2023-01-28T02:33:23.688Z,6.9
2023-01-28T02:34:23.672Z,6.8
2023-01-28T02:35:23.674Z,6.7
2023-01-28T02:36:23.675Z,6.7
2023-01-28T02:37:23.673Z,6.8
2023-01-28T02:38:23.709Z,6.8
2023-01-28T02:39:23.674Z,6.8
2023-01-28T02:40:23.734Z,6.6
2023-01-28T02:41:23.689Z,6.6
2023-01-28T02:42:23.680Z,6.4
2023-01-28T02:43:23.677Z,6.5
2023-01-28T02:44:23.682Z,6.6
2023-01-28T02:45:23.682Z,6.6
2023-01-28T02:46:23.738Z,6.5
2023-01-28T02:47:23.676Z,6.6
2023-01-28T02:49:23.690Z,6.7
2023-01-28T02:50:23.676Z,6.7
2023-01-28T02:51:23.683Z,6.7
2023-01-28T02:52:23.678Z,6.6
2023-01-28T02:53:23.672Z,6.7
2023-01-28T02:54:23.683Z,6.8
2023-01-28T02:55:23.710Z,6.9
2023-01-28T02:56:23.674Z,6.9
2023-01-28T02:57:23.689Z,7
2023-01-28T02:58:23.686Z,6.7
2023-01-28T02:59:23.681Z,6.7
2023-01-28T03:00:23.697Z,6.8
2023-01-28T03:01:23.718Z,6.8
2023-01-28T03:02:23.721Z,6.6
2023-01-28T03:03:23.683Z,6.5
2023-01-28T03:04:23.701Z,6.2
2023-01-28T03:05:23.669Z,6.1
2023-01-28T03:06:23.679Z,5.9
2023-01-28T03:07:23.681Z,6.1
2023-01-28T03:08:23.681Z,5.9
2023-01-28T03:09:23.692Z,5.8
2023-01-28T03:10:23.671Z,5.8
2023-01-28T03:11:23.670Z,5.8
2023-01-28T03:12:23.673Z,5.7
2023-01-28T03:13:23.674Z,5.6
2023-01-28T03:14:23.678Z,5.6
2023-01-28T03:15:23.685Z,5.5
2023-01-28T03:16:23.675Z,5.6
2023-01-28T03:17:26.368Z,5.6
2023-01-28T03:18:23.675Z,5.7
2023-01-28T03:19:23.681Z,5.6
2023-01-28T03:20:23.679Z,5.3
2023-01-28T03:21:23.668Z,5.5
2023-01-28T03:22:23.674Z,5.7
2023-01-28T03:23:23.676Z,5.6
2023-01-28T03:24:23.772Z,5.5
2023-01-28T03:25:23.679Z,5.6
2023-01-28T03:26:23.671Z,5.8
2023-01-28T03:27:23.675Z,5.8
2023-01-28T03:28:23.687Z,5.7
2023-01-28T03:29:23.671Z,5.6
2023-01-28T03:30:23.742Z,5.6
2023-01-28T03:31:23.671Z,5.8
2023-01-28T03:32:23.816Z,5.7
2023-01-28T03:33:23.673Z,5.8
2023-01-28T03:34:23.677Z,5.7
2023-01-28T03:35:23.679Z,5.6
2023-01-28T03:36:23.678Z,5.7
2023-01-28T03:37:23.665Z,5.7
2023-01-28T03:38:23.711Z,5.6
2023-01-28T03:39:23.679Z,5.5
2023-01-28T03:40:23.670Z,5.2
2023-01-28T03:41:23.686Z,5.1
2023-01-28T03:42:23.676Z,5.3
2023-01-28T03:43:23.674Z,5.4
2023-01-28T03:44:23.679Z,5.5
2023-01-28T03:45:23.674Z,5.3
2023-01-28T03:46:23.705Z,5.5
2023-01-28T03:47:23.685Z,5.7
2023-01-28T03:48:23.681Z,5.8
2023-01-28T03:49:23.665Z,5.9
2023-01-28T03:50:23.671Z,5.9
2023-01-28T03:51:23.675Z,6
2023-01-28T03:52:23.671Z,6
2023-01-28T03:53:23.670Z,6
2023-01-28T03:54:23.672Z,6.1
2023-01-28T03:55:23.672Z,6.1
2023-01-28T03:56:23.681Z,5.9
2023-01-28T03:57:23.675Z,5.9
2023-01-28T03:58:23.967Z,5.9
2023-01-28T03:59:23.685Z,5.4
2023-01-28T04:00:23.673Z,5.2
2023-01-28T04:01:23.753Z,5.3
2023-01-28T04:02:23.667Z,5.2
2023-01-28T04:03:23.701Z,5.2
2023-01-28T04:04:23.696Z,5.2
2023-01-28T04:05:23.669Z,5
2023-01-28T04:06:23.670Z,4.8
2023-01-28T04:07:23.666Z,4.9
2023-01-28T04:08:23.683Z,5
2023-01-28T04:09:23.674Z,5
2023-01-28T04:10:23.687Z,5.1
2023-01-28T04:11:23.665Z,5.2
2023-01-28T04:12:23.709Z,5.4
2023-01-28T04:13:23.669Z,5.4
2023-01-28T04:14:23.687Z,5.5
2023-01-28T04:15:23.670Z,5.4
2023-01-28T04:16:23.701Z,5.4
2023-01-28T04:17:23.695Z,5.2
2023-01-28T04:18:23.663Z,5.3
2023-01-28T04:19:23.673Z,5.3
2023-01-28T04:20:23.688Z,5.3
2023-01-28T04:21:23.675Z,5.4
2023-01-28T04:22:23.679Z,5.5
2023-01-28T04:23:23.667Z,5.6
2023-01-28T04:24:23.886Z,5.4
2023-01-28T04:25:23.673Z,5.3
2023-01-28T04:26:23.670Z,5.4
2023-01-28T04:27:24.060Z,5.4
2023-01-28T04:28:23.671Z,5.1
2023-01-28T04:29:23.667Z,5
2023-01-28T04:30:23.750Z,5.1
2023-01-28T04:31:23.678Z,5
2023-01-28T04:32:23.672Z,4.9
2023-01-28T04:33:23.685Z,4.9
2023-01-28T04:34:23.733Z,5
2023-01-28T04:35:23.669Z,5
2023-01-28T04:36:23.673Z,5
2023-01-28T04:37:23.659Z,4.9
2023-01-28T04:38:23.672Z,5
2023-01-28T04:39:23.671Z,5.2
2023-01-28T04:40:23.673Z,5.1
2023-01-28T04:41:23.659Z,5.2
2023-01-28T04:42:23.669Z,5.4
2023-01-28T04:43:23.683Z,5.6
2023-01-28T04:44:23.672Z,5.7
2023-01-28T04:45:23.662Z,5.6
2023-01-28T04:46:23.732Z,5.2
2023-01-28T04:47:23.665Z,5.2
2023-01-28T04:48:23.670Z,5.1
2023-01-28T04:49:23.676Z,5.2
2023-01-28T04:50:23.674Z,5.3
2023-01-28T04:51:23.665Z,5.3
2023-01-28T04:52:23.676Z,5.4
2023-01-28T04:53:23.674Z,5.3
2023-01-28T04:54:23.728Z,4.8
2023-01-28T04:55:23.674Z,4.9
2023-01-28T04:56:23.677Z,5
2023-01-28T04:57:23.670Z,5
2023-01-28T04:58:23.677Z,5.2
2023-01-28T04:59:23.667Z,5.3
2023-01-28T05:01:23.666Z,5.3
2023-01-28T05:02:23.697Z,5.4
2023-01-28T05:03:23.663Z,5.4
2023-01-28T05:04:23.670Z,5.5
2023-01-28T05:05:23.686Z,5.6
2023-01-28T05:06:23.661Z,5.7
2023-01-28T05:07:23.666Z,5.9
2023-01-28T05:08:23.667Z,6
2023-01-28T05:09:23.695Z,6.1
2023-01-28T05:10:23.663Z,5.9
2023-01-28T05:11:23.660Z,5.9
2023-01-28T05:12:23.725Z,5.7
2023-01-28T05:13:23.664Z,5.8
2023-01-28T05:14:23.678Z,5.9
2023-01-28T05:15:23.665Z,5.8
2023-01-28T05:16:23.664Z,5.9
2023-01-28T05:17:23.749Z,5.8
2023-01-28T05:18:23.675Z,5.9
2023-01-28T05:19:23.688Z,6
2023-01-28T05:20:23.658Z,6.1
2023-01-28T05:21:23.656Z,5.7
2023-01-28T05:23:23.665Z,5.7
2023-01-28T05:28:23.663Z,5.6
2023-01-28T06:54:23.640Z,4.5
2023-01-28T07:13:23.653Z,5.1
2023-01-28T07:25:23.651Z,5.2
2023-01-28T07:54:23.645Z,5.2
2023-01-28T09:10:23.639Z,4.4
2023-01-28T22:27:23.537Z,1.7
2023-01-28T23:36:23.512Z,1.7
